WFO Denver/Boulder


Hot-Air Balloon Forecast for Colorado
National Weather Service Denver/Boulder, Colorado
0605 MDT Monday, September 1, 2014

COLORADO SYNOPSIS VALID 01/1200Z-02/0000Z UPPER TROUGH AND COLD 
FRONT FROM MINNESOTA TO OKLAHOMA MOVING EAST WITH HIGH PRESSURE OVER 
THE PACIFIC NORTHWEST. NORTHWEST FLOW ALOFT OVER COLORADO. 
DRY/STABLE AIR SPREADING OVER THE STATE.

* * * * * Northeast Colorado * * * * *

METAR KFNL 011155Z AUTO 18005KT 10SM CLR 11/07 A3007 RMK AO1 70006 10130
       20110 54000
METAR KFNL 011135Z AUTO 16004KT 10SM CLR 11/08 A3007 RMK AO1
METAR KFNL 011115Z AUTO 16004KT 10SM CLR 11/08 A3007 RMK AO1

METAR KGXY 011155Z AUTO 00000KT 10SM BKN100 11/07 A3006 RMK AO1 10130
       20090 52003
METAR KGXY 011135Z AUTO 00000KT 10SM BKN100 12/07 A3006 RMK AO1
METAR KGXY 011115Z AUTO 24003KT 10SM BKN100 11/07 A3006 RMK AO1

METAR KLMO 011154Z AUTO 00000KT 5SM BR CLR 09/08 A3008 RMK AO2
       T00890076
METAR KLMO 011134Z AUTO 00000KT 7SM SCT039 10/09 A3008 RMK AO2
       T01030090
METAR KLMO 011114Z AUTO 00000KT 5SM BR BKN039 10/09 A3008 RMK AO2
       T01010087

METAR KBDU 011156Z AUTO 03003KT 10SM CLR 09/09 A3006 RMK AO2
METAR KBDU 011136Z AUTO 00000KT 10SM CLR 10/09 A3006 RMK AO2
METAR KBDU 011116Z AUTO 00000KT 10SM CLR 11/10 A3006 RMK AO2

METAR KEIK 011155Z AUTO 00000KT 10SM CLR 09/08 A3007 RMK AO2 T00860079
       10130 20086
METAR KEIK 011135Z AUTO 00000KT 10SM CLR 09/08 A3006 RMK AO2
       T00890080
METAR KEIK 011115Z AUTO 00000KT 10SM CLR 10/09 A3006 RMK AO2
       T01010090

KBJC 011120Z 0112/0212 VRB03KT P6SM FEW070 SCT130
     FM011800 08006KT P6SM SCT100
     FM020200 VRB03KT P6SM FEW100
METAR KBJC 011154Z AUTO 21003KT 10SM CLR 12/08 A3009 RMK AO2
METAR KBJC 011147Z 21003KT 40SM SCT080 12/09 A3008
METAR KBJC 011134Z AUTO 21003KT 10SM CLR 12/08 A3008 RMK AO2

KDEN 011120Z 0112/0218 18007KT P6SM FEW070 SCT130
     FM011900 07007KT P6SM SCT100
     FM020200 13005KT P6SM FEW100
     FM020600 23005KT P6SM FEW200
METAR KDEN 011153Z 20004KT 10SM FEW055 SCT110 11/07 A3007 RMK AO2 SLP127
       T01110067 10133 20100 55002 $
METAR KDEN 011053Z 18006KT 10SM FEW130 11/07 A3007 RMK AO2 SLP129
       T01110067
METAR KDEN 011053Z COR 18006KT 10SM FEW065 SCT110 11/07 A3007 RMK AO2
       SLP129 T01110067

METAR KFTG 011121Z AUTO 18004KT 10SM SCT045 BKN055 11/08 A3008 RMK
       AO2

KBKF 0109/0215 VRB06KT 9999 SCT120 QNH3005INS
      BECMG 0118/0119 33009KT 9999 SCT120 QNH3002INS
      BECMG 0201/0202 VRB06KT 9999 SCT100 QNH3008INS TX27/0122Z
      TN09/0113Z
METAR KBKF 011158Z 13003KT 10SM SCT041 12/06 A3009 RMK AO2A SLP133
       T01170061 10136 20104 55001
METAR KBKF 011058Z 21002KT 10SM BKN044 13/07 A3008 RMK AO2A SLP125
       T01290074
METAR KBKF 010958Z 15005KT 10SM SCT048 11/07 A3009 RMK AO2A SLP129
       T01100071

KAPA 011120Z 0112/0212 15003KT P6SM FEW040 SCT070
     FM011900 04006KT P6SM SCT100
     FM020200 12006KT P6SM FEW100
     FM020600 22004KT P6SM FEW200
METAR KAPA 011153Z 00000KT 10SM FEW040 FEW130 10/07 A3009 RMK AO2 SLP144
       T01000067 10139 20094 55001 $
METAR KAPA 011053Z 19003KT 10SM BKN040 12/08 A3008 RMK AO2 SLP131
       T01170078
METAR KAPA 010953Z 00000KT 10SM OVC040 13/06 A3009 RMK AO2 SLP129
       T01280056

METAR KMNH 011152Z AUTO 14004KT 10SM SCT033 07/07 A3013 RMK AO2
METAR KMNH 011133Z AUTO 00000KT 10SM BKN033 08/07 A3013 RMK AO2
METAR KMNH 011113Z AUTO 00000KT 10SM BKN035 OVC110 08/07 A3013 RMK
       AO2

METAR KFMM 011155Z AUTO 29005KT 10SM SCT080 10/08 A3004 RMK AO2
       T01020083 10140 20092 PWINO
METAR KFMM 011135Z AUTO 28005KT 10SM BKN080 11/09 A3004 RMK AO2
       T01070085 PWINO
METAR KFMM 011115Z AUTO 29005KT 10SM OVC080 11/09 A3004 RMK AO2
       T01100089 PWINO

METAR KSTK 011150Z AUTO 19005KT 10SM CLR 11/10 A3001 RMK AO2
METAR KSTK 011130Z AUTO 00000KT 10SM SCT120 11/10 A3000 RMK AO2
METAR KSTK 011110Z AUTO 00000KT 10SM CLR 11/10 A3000 RMK AO2

METAR KAKO 011153Z AUTO 26005KT 10SM BKN080 OVC090 11/09 A3004 RMK AO2
       SLP132 T01110089 10128 20100 53005 $
METAR KAKO 011053Z AUTO 24005KT 10SM SCT075 BKN095 12/08 A3003 RMK AO2
       SLP128 T01170083
METAR KAKO 010953Z AUTO 32004KT 10SM OVC090 12/08 A3003 RMK AO2 SLP126
       T01220083

METAR KLIC 011155Z AUTO 29004KT 10SM OVC060 12/09 A3008 RMK AO2 SLP121
       T01220094 10122 20083 53002 $
METAR KLIC 011055Z AUTO 26006KT 10SM OVC065 12/08 A3007 RMK AO2 SLP118
       T01170078
METAR KLIC 010955Z AUTO 30004KT 10SM CLR 12/08 A3007 RMK AO2 SLP115
       T01170078

METAR KHEQ 011155Z AUTO 29003KT 10SM CLR 12/08 A3000 RMK AO2
METAR KHEQ 011135Z AUTO 32004KT 10SM CLR 12/08 A2999 RMK AO2
METAR KHEQ 011115Z AUTO 30004KT 10SM CLR 13/10 A3000 RMK AO2

METAR K2V5 011155Z AUTO 25005KT 10SM A3000 RMK AO2
METAR K2V5 011135Z AUTO 28004KT 10SM 10/10 A2999 RMK AO2 T01000100
METAR K2V5 011115Z AUTO 22004KT 10SM 10/10 A3000 RMK AO2 T01010101

METAR KITR 011153Z AUTO 32007KT 10SM CLR 11/08 A3002 RMK AO2 SLP127
       70005 T01060083 10150 20100 53008
METAR KITR 011053Z AUTO 31005KT 10SM CLR 11/09 A3002 RMK AO2 SLP123
       T01060089
METAR KITR 010953Z AUTO 32006KT 10SM CLR 12/09 A3000 RMK AO2 SLP116
       T01170094

Sunrise/Sunset for 09/01/2014
Fort Collins - 06:27:28 MDT / 19:33:41 MDT
Denver       - 06:27:55 MDT / 19:32:22 MDT
Sterling     - 06:19:56 MDT / 19:26:23 MDT

Denver/Boulder (KFTG) 09/01/14 11:52 UTC
Radar VAD winds      Height      Dir/Spd(kt)
                  17000 FT MSL...260/042
                  16000 FT MSL...286/025
                  15000 FT MSL...264/030
                  14000 FT MSL...271/020
                  13500 FT MSL...240/022
                  13000 FT MSL...250/019
                  12000 FT MSL...243/017
                  11800 FT MSL...247/017
                  11000 FT MSL...225/017
                  10100 FT MSL...202/014
                  10000 FT MSL...194/023
                   9000 FT MSL...205/017
                   8400 FT MSL...042/008
                   8000 FT MSL...038/013
                   7000 FT MSL...033/018
                   6600 FT MSL...026/013
                   6500 FT MSL...030/014
                   6000 FT MSL...020/008
                   5900 FT MSL...007/007

Denver/Boulder Aviation Discussion
Issued at 0905 UTC Monday, September  1, 2014

.AVIATION...(FOR THE TAFS THROUGH 12Z TUESDAY MORNING)
ISSUED AT 305 AM MDT MON SEP 1 2014
VFR THROUGH TONIGHT WITH LIGHT WINDS.


* * * * * Southeast Colorado * * * * *


METAR KAFF 011158Z AUTO 36004KT 10SM CLR 08/07 A3012 RMK AO2 SLP123
       T00810069 10115 20081 55001
METAR KAFF 011058Z AUTO 36006KT 10SM FEW037 BKN120 10/08 A3012 RMK AO2
       SLP118 T00950078
METAR KAFF 010958Z AUTO 35004KT 10SM FEW120 11/08 A3011 RMK AO2 SLP109
       T01140083

KCOS 011127Z 0112/0212 VRB06KT P6SM FEW040 SCT120
     FM011500 16010KT P6SM FEW100
     FM012200 11012KT P6SM SCT100
     FM020200 04007KT P6SM SKC
METAR KCOS 011154Z 12009KT 10SM FEW130 FEW250 12/08 A3012 RMK AO2 SLP115
       T01220083 10156 20122 53001
METAR KCOS 011054Z 14005KT 10SM SCT040 BKN130 14/09 A3011 RMK AO2 SLP113
       T01390089
METAR KCOS 010954Z 15005KT 10SM SCT040 BKN130 14/09 A3011 RMK AO2 SLP112
       T01390089

METAR KABH 011156Z AUTO 10008KT 10SM CLR 11/06 A3011 RMK AO2 SLP124
       6//// 7//// T01060056 10128 20094 53004 PNO $
METAR KABH 011056Z AUTO 09008KT 10SM CLR 11/07 A3010 RMK AO2 SLP127
       T01060072 PNO $
METAR KABH 010956Z AUTO 09008KT 10SM BKN050 13/09 A3010 RMK AO2 SLP117
       T01280094 PNO $

METAR KFLY 011155Z AUTO 13003KT 10SM CLR 10/08 A3015 RMK AO2 T00950084
       10129 20095
METAR KFLY 011135Z AUTO 16004KT 10SM CLR 10/09 A3015 RMK AO2
       T00990086
METAR KFLY 011116Z AUTO 13004KT 10SM SCT110 11/09 A3015 RMK AO2
       T01070090

KFCS 0105/0211 16009KT 9999 FEW140 QNH3001INS
     BECMG 0118/0119 17012KT 9999 FEW100 QNH2997INS
     BECMG 0202/0203 33009KT 9999 SCT100 QNH3009INS TX29/0122Z
     TN12/0112Z
METAR KFCS 011158Z AUTO 12008KT 10SM CLR 10/08 A3010 RMK AO2 SLP143
       T01040080 10153 20103 50004
METAR KFCS 011058Z AUTO 23009KT 10SM SCT120 12/08 A3008 RMK AO2 SLP136
       T01220084
METAR KFCS 010958Z AUTO 13004KT 10SM SCT047 SCT130 12/09 A3009 RMK AO2
       SLP139 T01180088

KPUB 011127Z 0112/0212 VRB06KT P6SM SCT060 SCT120
     FM011800 15010KT P6SM FEW110
     FM012200 09015KT P6SM SCT110
     FM020200 04007KT P6SM SKC
METAR KPUB 011153Z 00000KT 10SM CLR 13/10 A3006 RMK AO2 SLP117 T01330100
       10172 20128 53010
METAR KPUB 011053Z AUTO 22004KT 10SM BKN060 13/09 A3004 RMK AO2 SLP110
       T01330089
METAR KPUB 010953Z AUTO 31003KT 10SM CLR 15/08 A3002 RMK AO2 SLP101
       T01500083


METAR KTAD 011154Z AUTO 28005KT 10SM CLR 11/08 A3010 RMK AO2 SLP112
       T01060078 10156 20100 53013
METAR KTAD 011054Z AUTO 29006KT 10SM CLR 11/07 A3008 RMK AO2 SLP104
       T01060072
METAR KTAD 010954Z AUTO 31007KT 10SM CLR 11/07 A3006 RMK AO2 SLP093
       T01110072

METAR KLHX 011153Z AUTO 00000KT 10SM CLR 13/09 A3004 RMK AO2 SLP119
       T01330094 10178 20122 53016
METAR KLHX 011053Z AUTO 01006KT 10SM CLR 13/09 A3001 RMK AO2 SLP107
       T01330094
METAR KLHX 010953Z AUTO 01008KT 10SM CLR 13/10 A3001 RMK AO2 SLP103
       T01330100

METAR KLAA 011153Z AUTO 00000KT 10SM CLR 12/10 A3000 RMK AO2 SLP118
       T01220100 10161 20117 53014
METAR KLAA 011053Z AUTO 33004KT 10SM CLR 13/11 A2997 RMK AO2 SLP104
       T01330111
METAR KLAA 010953Z AUTO 00000KT 10SM CLR 12/11 A2996 RMK AO2 SLP103
       T01220106

METAR KSPD 011156Z AUTO 33009KT 12/11 A3002 RMK AO1 SLP108 T01220106
       10156 20117 53019
METAR KSPD 011056Z AUTO 34012KT 13/11 A3000 RMK AO1 SLP093 T01330106
METAR KSPD 010956Z AUTO 34007KT 12/11 A2997 RMK AO1 SLP083 T01220106

Sunrise/Sunset for 09/01/2014
Burlington - 06:17:35 MDT / 19:21:10 MDT
Pueblo     - 06:28:03 MDT / 19:29:28 MDT
Lamar      - 06:20:13 MDT / 19:21:17 MDT

Pueblo (KPUX) 09/01/14 11:59 UTC
Radar VAD winds      Height      Dir/Spd(kt)
                  11000 FT MSL...232/019
                  10000 FT MSL...189/014
                   8000 FT MSL...336/008
                   7100 FT MSL...050/018
                   7000 FT MSL...069/018
                   6400 FT MSL...053/015
                   6000 FT MSL...061/020
                   5900 FT MSL...066/020
                   5700 FT MSL...063/022

Pueblo Aviation Discussion
Issued at 1002 UTC Monday, September  1, 2014

.AVIATION...(FOR THE 12Z TAFS THROUGH 12Z TUESDAY MORNING)
ISSUED AT 350 AM MDT MON SEP 1 2014
VFR CONDITIONS ARE EXPECTED TO CONTINUE OVER THE KALS...KCOS AND 
KPUB TAF SITES THROUGH TONIGHT...ALTHOUGH ISOLATED THUNDERSTORMS ARE 
STILL ANTICIPATED INTO THIS EVENING...PRIMARILY NEAR THE KCOS AND 
KPUB TAF SITES.
IN ADDITION...A NORTHERLY TO NORTHEASTERLY SURFACE SURGE PUSHING 
ACROSS SOUTHEASTERN COLORADO WILL BE CAPABLE OF GENERATING WIND 
GUSTS IN EXCESS OF 25 KNOTS AT TIMES THIS EVENING.


* * * * * Northwest Colorado * * * * *

METAR KCAG 011153Z AUTO 00000KT 10SM CLR 05/03 A3014 RMK AO2 SLP159
       70007 T00500033 10100 20039 55000
METAR KCAG 011053Z AUTO 11003KT 10SM CLR 05/03 A3013 RMK AO2 SLP157
       T00500033
METAR KCAG 010953Z AUTO 00000KT 10SM CLR 06/05 A3014 RMK AO2 SLP157
       T00610050

METAR KHDN 011155Z AUTO 10009KT 10SM CLR 06/02 A3014 RMK AO1 70008 10110
       20060 57003
METAR KHDN 011135Z AUTO 10007KT 10SM CLR 06/02 A3014 RMK AO1
METAR KHDN 011115Z AUTO 10010KT 10SM CLR 06/03 A3014 RMK AO1


METAR K33V 011155Z AUTO 17006KT 10SM CLR 03/00 A3018 RMK AO2
METAR K33V 011135Z AUTO 19006KT 10SM CLR 05/01 A3018 RMK AO2
METAR K33V 011114Z AUTO 00000KT 10SM CLR 03/01 A3018 RMK AO2

METAR KEEO 011153Z AUTO 07005KT 10SM CLR 06/03 A3015 RMK AO2 SLP140
       T00610028 10106 20050 50000
METAR KEEO 011053Z AUTO VRB03KT 10SM CLR 07/03 A3015 RMK AO2 SLP140
       T00670033
METAR KEEO 010953Z AUTO 07004KT 10SM CLR 06/03 A3016 RMK AO2 SLP144
       T00610033

METAR K20V 011157Z AUTO 00000KT 10SM SCT049 01/00 A3022 RMK AO2
METAR K20V 011137Z AUTO 00000KT 10SM BKN049 02/01 A3022 RMK AO2
METAR K20V 011116Z AUTO 00000KT 10SM BKN049 02/01 A3022 RMK AO2

METAR K0CO 011155Z AUTO 31019G25KT 1SM BR VV007 00/M01 A3039 RMK AO2 VIS
       1/4V5
METAR K0CO 011135Z AUTO 28021G30KT 10SM CLR 00/00 A3039 RMK AO2
METAR K0CO 011115Z AUTO 28018G31KT 10SM SCT001 00/00 A3039 RMK AO2

KGJT 011120Z 0112/0212 09006KT P6SM SKC
     FM011300 14006KT P6SM SKC
     FM012000 29008KT P6SM SKC
     FM020200 07005KT P6SM SKC
     FM020900 11005KT P6SM SKC
METAR KGJT 011153Z 00000KT 10SM CLR 10/05 A3003 RMK AO2 SLP111 T01000050
       10161 20100 53003
METAR KGJT 011053Z AUTO 10003KT 10SM CLR 13/04 A3002 RMK AO2 SLP101
       T01280039
METAR KGJT 010953Z AUTO 07003KT 10SM CLR 13/03 A3002 RMK AO2 SLP101
       T01330033

KRIL 011120Z 0112/0212 00000KT P6SM SKC
     FM012000 28014G24KT P6SM FEW120
     FM020200 14004KT P6SM SKC
     FM020600 00000KT P6SM SKC
METAR KRIL 011153Z AUTO 09003KT 10SM CLR 08/05 A3010 RMK AO2 SLP139
       T00780050 10189 20078 53005
METAR KRIL 011053Z AUTO 00000KT 10SM CLR 10/06 A3009 RMK AO2 SLP132
       T01000061
METAR KRIL 010953Z AUTO 00000KT 10SM CLR 11/06 A3009 RMK AO2 SLP132
       T01060056

METAR K5SM 011157Z AUTO 00000KT 10SM CLR 05/M01 A3035 RMK AO2
METAR K5SM 011138Z AUTO 00000KT 10SM CLR 05/00 A3035 RMK AO2
METAR K5SM 011117Z AUTO 22003KT 10SM CLR 06/M01 A3034 RMK AO2

KEGE 011120Z 0112/0212 00000KT P6SM SKC
     FM011800 29013G22KT P6SM FEW110
     FM020200 09006KT P6SM SKC AMD LTD TO CLD VIS AND WIND TIL
      011300
METAR KEGE 011155Z AUTO 00000KT 10SM CLR 06/04 A3019 RMK AO1 10130 20060
       52007
METAR KEGE 011135Z AUTO 00000KT 10SM CLR 06/05 A3019 RMK AO1
METAR KEGE 011115Z AUTO 06003KT 10SM CLR 06/04 A3018 RMK AO1

KASE 011120Z 0112/0212 20006KT P6SM FEW110
     FM011900 33013G23KT P6SM FEW110
     FM020220 21005KT P6SM SKC
METAR KASE 011153Z AUTO 21006KT 10SM CLR 06/02 A3020 RMK AO2 SLP119
       70003 T00560017 10111 20056 50002
METAR KASE 011053Z AUTO 20006KT 10SM CLR 06/02 A3021 RMK AO2 SLP118
       T00610022
METAR KASE 010953Z AUTO 21008KT 10SM CLR 08/03 A3020 RMK AO2 SLP115
       T00780028

METAR KCCU 011156Z AUTO 22009G20KT 10SM CLR 05/M06 A3040 RMK AO2
METAR KCCU 011136Z AUTO 21013G17KT 10SM CLR 05/M05 A3040 RMK AO2
METAR KCCU 011116Z AUTO 22009G18KT 180V260 10SM CLR 05/M03 A3040 RMK
       AO2

METAR KLXV 011153Z AUTO 06007KT 10SM CLR 06/M01 A3029 RMK AO2 SLP102
       T00561011 10094 20056 55000
METAR KLXV 011053Z AUTO 03008KT 10SM CLR 06/M01 A3029 RMK AO2 SLP098
       T00611006
METAR KLXV 010953Z AUTO 03009G18KT 10SM FEW080 07/M01 A3028 RMK AO2
       SLP091 T00721006

Sunrise/Sunset for 09/01/2014
Rangely           - 06:42:49 MDT / 19:48:00 MDT
Grand Junction    - 06:42:57 MDT / 19:46:02 MDT
Steamboat Springs - 06:34:34 MDT / 19:40:36 MDT

Grand Junction (KGJX) 09/01/14 11:46 UTC
Radar VAD winds      Height      Dir/Spd(kt)
                  13000 FT MSL...290/037
                  12800 FT MSL...304/042
                  12000 FT MSL...295/033
                  11100 FT MSL...322/033
                  11000 FT MSL...315/028
                  11000 FT MSL...323/034
                  10400 FT MSL...330/026

Grand Junction Aviation Discussion
Issued at 1015 UTC Monday, September  1, 2014

.AVIATION...(FOR THE 12Z TAFS THROUGH 12Z TUESDAY MORNING)
ISSUED AT 412 AM MDT MON SEP 1 2014
VFR CONDITIONS WITH NEARLY CLEAR SKIES WILL PREVAIL FOR THE NEXT
24 HOURS.


* * * * * Southwest Colorado * * * * *

METAR KAJZ 011155Z AUTO 06005KT 7SM CLR 13/03 A3009 RMK AO2 T01260030
       10229 20126
METAR KAJZ 011135Z AUTO 05005KT 5SM HZ CLR 13/03 A3008 RMK AO2
       T01340031
METAR KAJZ 011115Z AUTO 06006KT 7SM CLR 14/03 A3007 RMK AO2
       T01380032

KMTJ 011120Z 0112/0212 13010KT P6SM SKC
     FM011700 30008KT P6SM SKC
     FM020200 14005KT P6SM SKC
METAR KMTJ 011153Z AUTO 13008KT 10SM CLR 12/03 A3012 RMK AO2 SLP120
       T01170028 10156 20106 51002
METAR KMTJ 011053Z AUTO 13010KT 10SM CLR 12/02 A3012 RMK AO2 SLP118
       T01220022
METAR KMTJ 010953Z AUTO 15007KT 10SM CLR 11/04 A3012 RMK AO2 SLP126
       T01060044

METAR KGUC 011155Z AUTO 00000KT 10SM CLR 03/00 A3025 RMK AO1 10090 20030
       52010
METAR KGUC 011135Z AUTO 00000KT 10SM CLR 04/01 A3024 RMK AO1
METAR KGUC 011115Z AUTO 02004KT 10SM CLR 05/01 A3024 RMK AO1

METAR K7BM 011154Z AUTO 05003KT 10SM CLR 11/M02 A3029 RMK AO2
METAR K7BM 011133Z AUTO 00000KT 10SM CLR 12/M05 A3029 RMK AO2
METAR K7BM 011113Z AUTO 00000KT 10SM CLR 12/M04 A3028 RMK AO2

METAR KAEJ 011155Z AUTO 00000KT 10SM CLR 04/00 A3019 RMK AO2 T00351004
       10108 20035
METAR KAEJ 011135Z AUTO 21005KT 10SM CLR 05/00 A3019 RMK AO2
       T00541001
METAR KAEJ 011115Z AUTO 00000KT 10SM CLR 06/00 A3019 RMK AO2
       T00550000

METAR KANK 011155Z AUTO 12004KT 10SM CLR 10/06 A3024 RMK AO1 T01000063
       10157 20089
METAR KANK 011135Z AUTO 00000KT 10SM CLR 10/05 A3024 RMK AO1
       T01000049
METAR KANK 011115Z AUTO 15004KT 10SM CLR 12/07 A3023 RMK AO1
       T01160072

METAR KMYP 011203Z AUTO 27030KT 10SM CLR 03/M02 A3050 RMK AO2
METAR KMYP 011137Z AUTO 27028G35KT 10SM CLR 03/M02 A3050 RMK AO2
METAR KMYP 011125Z AUTO 27030G36KT 10SM CLR 03/M02 A3050 RMK AO2

METAR KAIB 011155Z AUTO 08004KT 10SM CLR 12/01 A3013 RMK AO2
METAR KAIB 011135Z AUTO 12005KT 10SM CLR 11/01 A3012 RMK AO2
METAR KAIB 011115Z AUTO 12006KT 10SM CLR 12/01 A3013 RMK AO2

KTEX 011120Z 0112/0212 13005KT P6SM SKC
     FM011800 25012G19KT P6SM SKC
     FM020300 14003KT P6SM SKC
METAR KTEX 011156Z AUTO 13006KT 10SM CLR 08/01 A3031 RMK AO2
METAR KTEX 011138Z AUTO 13006KT 10SM CLR 08/01 A3031 RMK AO2
METAR KTEX 011117Z AUTO 11006KT 10SM CLR 09/01 A3030 RMK AO2


METAR KCEZ 011153Z AUTO 08004KT 10SM CLR 08/04 A3011 RMK AO2 SLP124
       T00780039 10161 20072 53005 $
METAR KCEZ 011053Z AUTO 05006KT 10SM CLR 08/04 A3010 RMK AO2 SLP117
       T00780039 $
METAR KCEZ 010953Z AUTO 04005KT 10SM CLR 09/05 A3009 RMK AO2 SLP116
       T00940050 $

KDRO 011120Z 0112/0212 VRB02KT P6SM SKC
     FM011600 25008KT P6SM SKC
     FM011900 26014G24KT P6SM SKC
     FM020200 35005KT P6SM SKC
METAR KDRO 011153Z AUTO 07005KT 10SM CLR 07/02 A3014 RMK AO2 SLP132
       T00670017 10156 20067 53006
METAR KDRO 011053Z AUTO 00000KT 10SM CLR 09/02 A3013 RMK AO2 SLP122
       T00890022
METAR KDRO 010953Z AUTO 07003KT 10SM CLR 08/02 A3012 RMK AO2 SLP120
       T00830022


METAR KCPW 011152Z AUTO 21010KT 10SM CLR 05/M02 A3046 RMK AO2
METAR KCPW 011134Z AUTO 23011G16KT 10SM CLR 06/M02 A3045 RMK AO2
METAR KCPW 011104Z AUTO 22018G25KT 10SM CLR 07/M03 A3045 RMK AO2

KALS 011127Z 0112/0212 20008KT P6SM SKC
     FM011900 27014KT P6SM SCT090
     FM020100 33010KT P6SM FEW090
     FM020400 VRB04KT P6SM SKC
METAR KALS 011152Z AUTO 17004KT 10SM CLR 04/01 A3018 RMK AO2 SLP138
       T00440006 10117 20039 53010
METAR KALS 011052Z AUTO 28006KT 10SM CLR 07/01 A3016 RMK AO2 SLP121
       T00720011
METAR KALS 010952Z AUTO 13006KT 10SM CLR 08/01 A3015 RMK AO2 SLP114
       T00830011

Sunrise/Sunset for 09/01/2014
Vail    - 06:33:36 MDT / 19:37:51 MDT
Durango - 06:42:01 MDT / 19:41:29 MDT
Alamosa - 06:33:51 MDT / 19:33:41 MDT

Grand Junction (KGJX) 09/01/14 11:46 UTC
Radar VAD winds      Height      Dir/Spd(kt)
                  13000 FT MSL...290/037
                  12800 FT MSL...304/042
                  12000 FT MSL...295/033
                  11100 FT MSL...322/033
                  11000 FT MSL...315/028
                  11000 FT MSL...323/034
                  10400 FT MSL...330/026

Grand Junction Aviation Discussion
Issued at 1015 UTC Monday, September  1, 2014

.AVIATION...(FOR THE 12Z TAFS THROUGH 12Z TUESDAY MORNING)
ISSUED AT 412 AM MDT MON SEP 1 2014
VFR CONDITIONS WITH NEARLY CLEAR SKIES WILL PREVAIL FOR THE NEXT
24 HOURS.


* * * * * Arizona * * * * *

KPGA 011120Z 0112/0212 VRB06KT P6SM SKC
     FM012300 35007KT P6SM SKC
     FM020100 VRB05KT P6SM SKC
METAR KPGA 011153Z AUTO 00000KT 10SM CLR 22/02 A2999 RMK AO2 SLP081
       T02220017 10294 20222 53007
METAR KPGA 011053Z AUTO 00000KT 10SM CLR 23/00 A2998 RMK AO2 SLP076
       T02330000
METAR KPGA 010953Z AUTO 00000KT 10SM CLR 23/01 A2997 RMK AO2 SLP073
       T02330006

METAR KRQE 011053Z AUTO VRB03KT 10SM CLR 18/03 A3019 RMK AO2 SLP080
       T01830033 TSNO $
METAR KRQE 010953Z AUTO 21005KT 10SM CLR 17/03 A3019 RMK AO2 SLP087
       T01670033 TSNO $

Flagstaff (KFSX) 09/01/14 11:48 UTC
Radar VAD winds      Height      Dir/Spd(kt)
                  15300 FT MSL...325/027
                  15000 FT MSL...344/028
                  14000 FT MSL...351/023
                  13700 FT MSL...348/022
                  13000 FT MSL...346/021
                  12000 FT MSL...346/021
                  12000 FT MSL...346/021
                  11000 FT MSL...319/023
                  10200 FT MSL...337/024
                  10000 FT MSL...316/022
                   9000 FT MSL...306/020
                   8500 FT MSL...290/021
                   8400 FT MSL...265/023
                   8000 FT MSL...291/019
                   7800 FT MSL...272/021

Flagstaff Aviation Discussion
Issued at 1016 UTC Monday, September  1, 2014

.AVIATION...
FOR THE 12Z PACKAGE...DRY WESTERLY FLOW WILL CONTINUE TO BRING VFR 
CONDITIONS FOR THE NEXT 24 HOURS. LIGHT WINDS. AVIATION DISCUSSION 
NOT UPDATED FOR AMENDMENTS.


* * * * * Utah * * * * *

KSLC 011120Z 0112/0218 17005KT P6SM SKC
     FM011700 33006KT P6SM SKC
     FM020300 16007KT P6SM SKC
METAR KSLC 011153Z 12005KT 10SM CLR 13/04 A3001 RMK AO2 SLP122 T01280044
       10167 20128 53003
METAR KSLC 011053Z 14007KT 10SM CLR 14/04 A3000 RMK AO2 SLP117
       T01390044
METAR KSLC 010953Z 15006KT 10SM CLR 14/03 A3000 RMK AO2 SLP117
       T01440033

KVEL 011120Z 0112/0212 29005KT P6SM SKC
     FM011900 24010KT P6SM SKC
     FM020100 32005KT P6SM SKC
METAR KVEL 011153Z AUTO 31004KT 10SM CLR 09/02 A3007 RMK AO2 SLP135
       T00890017 10128 20083 51005
METAR KVEL 011053Z AUTO 00000KT 10SM CLR 09/02 A3007 RMK AO2 SLP132
       T00890022
METAR KVEL 010953Z AUTO 29006KT 10SM CLR 09/01 A3007 RMK AO2 SLP131
       T00940011

METAR KPUC 011153Z AUTO 01008KT 10SM CLR 11/01 A3008 RMK AO2 SLP126
       T01110006 10150 20106 51000
METAR KPUC 011053Z AUTO 01005KT 10SM CLR 11/01 A3008 RMK AO2 SLP122
       T01110006
METAR KPUC 010953Z AUTO 29003KT 10SM CLR 13/01 A3009 RMK AO2 SLP117
       T01330006

KCNY 011120Z 0112/0212 26005KT P6SM SKC
     FM011700 29008KT P6SM SKC
     FM012000 29011G21KT P6SM SKC
     FM020200 31006KT P6SM SKC
METAR KCNY 011153Z AUTO 00000KT 10SM CLR 14/01 A2999 RMK AO2 SLP098
       T01390006 10228 20128 53001
METAR KCNY 011053Z AUTO 26004KT 10SM CLR 13/01 A2998 RMK AO2 SLP096
       T01280006
METAR KCNY 010953Z AUTO 25005KT 10SM CLR 14/02 A2998 RMK AO2 SLP094
       T01390017


Salt Lake City (KMTX) 09/01/14 11:50 UTC
Radar VAD winds      Height      Dir/Spd(kt)
                  18000 FT MSL...064/006
                  16000 FT MSL...254/016
                  14000 FT MSL...286/025
                  13000 FT MSL...312/032
                  12900 FT MSL...308/024
                  12000 FT MSL...309/035
                  11200 FT MSL...312/034
                  11000 FT MSL...311/032
                  10000 FT MSL...311/030
                   9400 FT MSL...305/029
                   9000 FT MSL...302/027
                   8000 FT MSL...309/020
                   7700 FT MSL...303/019
                   7500 FT MSL...242/012
                   7000 FT MSL...286/015
                   6900 FT MSL...286/012

Salt Lake City Aviation Discussion
Issued at 0834 UTC Monday, September  1, 2014

.AVIATION...SOUTHEAST WINDS ARE EXPECTED TO SWITCH TO THE 
NORTHWEST BETWEEN 17Z AND 19Z AT THE SLC TERMINAL. OTHERWISE EXPECT 
VFR CONDITIONS UNDER MOSTLY CLEAR SKIES.


* * * * * Wyoming * * * * *

KEVW 011120Z 0112/0212 VRB06KT P6SM SKC
     FM011700 24013G20KT P6SM SKC
     FM020300 VRB06KT P6SM SKC=
METAR KEVW 011153Z AUTO 20006KT 10SM CLR 07/M01 A3015 RMK AO2 SLP140
       70003 T00671011 10100 20067 53000
METAR KEVW 011053Z AUTO 20007KT 10SM CLR 07/M01 A3014 RMK AO2 SLP135
       T00721011
METAR KEVW 010953Z AUTO 17006KT 10SM CLR 07/M02 A3014 RMK AO2 SLP137
       T00721017

KRKS 011128Z 0112/0212 20006KT P6SM SCT200
     FM011500 26012KT P6SM SKC
     FM011800 27020G30KT P6SM SKC
     FM020100 28012G18KT P6SM SKC
     FM020600 25008KT P6SM SKC
METAR KRKS 011154Z AUTO 24004KT 10SM CLR 07/00 A3012 RMK AO2 SLP143
       70004 T00720000 10100 20061 55002
METAR KRKS 011054Z AUTO 20006KT 10SM CLR 07/00 A3012 RMK AO2 SLP139
       T00720000
METAR KRKS 010954Z AUTO 21007KT 10SM CLR 07/00 A3013 RMK AO2 SLP146
       T00670000

KRWL 011127Z 0112/0212 23006KT P6SM SCT200
     FM011500 25018G26KT P6SM SCT250
     FM020200 26008KT P6SM SKC
METAR KRWL 011153Z AUTO 24006KT 10SM CLR 07/02 A3010 RMK AO2 SLP130
       70005 T00720017 10094 20061 51001
METAR KRWL 011053Z AUTO 23005KT 10SM CLR 08/02 A3010 RMK AO2 SLP125
       T00780022
METAR KRWL 010953Z AUTO 23006KT 10SM CLR 07/02 A3010 RMK AO2 SLP125
       T00720022

KLAR 011127Z 0112/0212 24005KT P6SM SCT250
     FM011600 28017G28KT P6SM SCT250
     FM020200 26007KT P6SM SKC
     FM020600 17005KT P6SM SKC
METAR KLAR 011153Z AUTO 27007KT 10SM CLR 06/01 A3011 RMK AO2 SLP117
       70019 T00560011 10111 20039 55001
METAR KLAR 011053Z AUTO 24004KT 10SM CLR 05/01 A3010 RMK AO2 SLP114
       T00500011
METAR KLAR 010953Z AUTO 25005KT 10SM CLR 04/02 A3011 RMK AO2 SLP123
       T00390017

KCYS 011127Z 0112/0212 26004KT P6SM FEW090
     FM011600 28016G25KT P6SM SCT100
     FM020200 30005KT P6SM SKC
METAR KCYS 011153Z 26006KT 10SM CLR 08/03 A3007 RMK AO2 SLP119 70003
       T00780033 10094 20067 55003
METAR KCYS 011053Z AUTO 25005KT 10SM FEW090 07/04 A3007 RMK AO2 SLP118
       T00670044
METAR KCYS 010953Z AUTO 27006KT 10SM OVC095 08/06 A3007 RMK AO2 SLP116
       T00830056

Riverton (KRIW) 09/01/14 12:01 UTC
Radar VAD winds      Height      Dir/Spd(kt)
                  24000 FT MSL...276/046
                  22000 FT MSL...270/068
                  20000 FT MSL...279/036
                  19000 FT MSL...307/020
                  15000 FT MSL...293/016
                  14000 FT MSL...270/021
                  13000 FT MSL...305/023
                  12000 FT MSL...324/027
                  11000 FT MSL...319/021
                  10000 FT MSL...306/020
                   9000 FT MSL...327/015
                   9000 FT MSL...313/017
                   8200 FT MSL...336/015
                   8000 FT MSL...338/015
                   7400 FT MSL...343/017
                   7000 FT MSL...343/019
                   6700 FT MSL...348/017
                   6200 FT MSL...339/022
                   6000 FT MSL...328/020
                   6000 FT MSL...334/019

Cheyenne (KCYS) 09/01/14 11:54 UTC
Radar VAD winds      Height      Dir/Spd(kt)
                  12000 FT MSL...313/030
                  11000 FT MSL...305/025
                  10600 FT MSL...312/026
                  10000 FT MSL...318/026
                   9000 FT MSL...322/025
                   8900 FT MSL...323/025
                   8000 FT MSL...313/025
                   7200 FT MSL...324/018
                   7100 FT MSL...308/019
                   7000 FT MSL...311/017
                   6500 FT MSL...288/013

Riverton Aviation Discussion
Issued at 1012 UTC Monday, September  1, 2014

.AVIATION.../12Z ISSUANCE/
A LAST IN A SERIES OF UPPER LEVEL DISTURBANCES IN NW FLOW WILL RACE 
SE INTO NW WYOMING THIS MORNING AND INTO THE HIGH PLAINS LATE THIS 
AFTERNOON.   AREAS OF MVFR/IFR CIGS WITH SCT -SHRA...SNOW LEVELS 
NEAR 9.5KFT WITH FRQT MTN OBSCURATIONS ...WILL SPREAD ACROSS 
NORTHERN WYOMING FROM YELLOWSTONE NATIONAL PARK TO A VCNTY AND NORTH 
OF KCOD-KBYG LINE 09Z-15Z.  MOST OF THIS ACTIVITY WILL PUSH FROM 
VCNTY OF THE BIGHORN RANGE AND EASTWARD BY EARLY AFTERNOON.  SOME OF 
THIS SHOWER ACTIVITY MAY REACH AS FAR AS KCPR IN THE LATE MORNING 
AND AFTERNOON.  W-NW WIND AT 15-25KT AND MAINLY SKC CONDITIONS WILL 
PREVAIL ACROSS THE SOUTHERN THIRD OF THE AREA IN THE AFTERNOON. 
SKC CONDITIONS WITH DIMINISHING WIND...PATCHY FOG IN THE WESTERN 
VALLEYS...WILL PREVAIL MONDAY NIGHT.  

Cheyenne Aviation Discussion
Issued at 1052 UTC Monday, September  1, 2014

.AVIATION...(FOR THE 12Z TAFS THROUGH 12Z TUESDAY MORNING)
ISSUED AT 440 AM MDT MON SEP 1 2014
VFR EXPECTED OVER ALL AERODROMES THROUGH TUESDAY. ISOLATED SHOWERS
AND TSTMS WILL BE POSSIBLE MAINLY OVER THE NE HALF OF THE NEB
PANHANDLE THIS AFTERNOON AND EVENING. 


* * * * * Nebraska * * * * *

METAR KIBM 011155Z AUTO 25007KT 10SM CLR 07/06 A3002 RMK AO2 70002
       T00700063 10112 20068
METAR KIBM 011135Z AUTO 24006KT 10SM CLR 07/07 A3002 RMK AO2
       T00700065
METAR KIBM 011115Z AUTO 23005KT 10SM CLR 07/07 A3002 RMK AO2
       T00720066

KSNY 011127Z 0112/0212 29007KT P6SM SCT250
     FM020200 35008KT P6SM SCT250
METAR KSNY 011153Z AUTO 30006KT 10SM CLR 09/07 A3001 RMK AO2 SLP124
       70005 T00890067 10111 20089 51005
METAR KSNY 011053Z AUTO 31007KT 10SM CLR 10/08 A3001 RMK AO2 SLP121
       T01000078
METAR KSNY 010953Z AUTO 32010KT 10SM CLR 11/08 A3001 RMK AO2 SLP121
       T01060078

METAR KOGA 011155Z AUTO 30003KT 10SM SCT120 10/09 A2996 RMK AO2 70005
       T01000086 10120 20098
METAR KOGA 011135Z AUTO 00000KT 10SM SCT120 10/09 A2996 RMK AO2
       T01040088
METAR KOGA 011115Z AUTO 34009KT 10SM CLR 11/09 A2995 RMK AO2
       T01120092

METAR KIML 011153Z AUTO 30005KT 10SM CLR 11/09 A2998 RMK AO2 SLP132
       T01110089 10144 20106 52007
METAR KIML 011053Z AUTO 29004KT 10SM CLR 12/09 A2996 RMK AO2 SLP127
       T01220094
METAR KIML 010953Z AUTO 29005KT 10SM CLR 13/11 A2996 RMK AO2 SLP127
       T01280106

KMCK 011120Z 0112/0212 32008KT P6SM SKC
     FM012200 VRB05KT P6SM SKC
     FM020500 22003KT P6SM SKC
METAR KMCK 011153Z AUTO 28008KT 10SM BKN120 13/11 A2994 RMK AO2 SLP125
       T01330111 10172 20128 53004
METAR KMCK 011053Z AUTO 30007KT 10SM CLR 13/11 A2994 RMK AO2 SLP122
       T01280111
METAR KMCK 010953Z AUTO 29007KT 10SM CLR 13/11 A2993 RMK AO2 SLP120
       T01280111

North Platte (KLNX) 09/01/14 11:59 UTC
Radar VAD winds      Height      Dir/Spd(kt)
                  10000 FT MSL...344/021
                   9100 FT MSL...341/021
                   9000 FT MSL...339/021
                   8000 FT MSL...339/018
                   7500 FT MSL...337/016
                   7000 FT MSL...337/015
                   6000 FT MSL...335/016
                   5800 FT MSL...338/020
                   5000 FT MSL...344/019
                   4100 FT MSL...338/024
                   4000 FT MSL...345/021
                   4000 FT MSL...345/020
                   3400 FT MSL...337/019

North Platte Aviation Discussion
Issued at 1137 UTC Monday, September  1, 2014

.AVIATION...(FOR THE 12Z TAFS THROUGH 12Z TUESDAY MORNING)
ISSUED AT 636 AM CDT MON SEP 1 2014
MODEL GUIDANCE IS STILL HINTING AT THE POSSIBILITY OF LOW STRATUS
AT KVTN EARLY THIS MORNING...HOWEVER THIS HAS YET TO MATERIALIZE
BASED ON SATELLITE AND LOCAL OBSERVATIONS. HAVE LEFT MVFR
CONDITIONS IN A TEMPO GROUP FOR CONSISTENCY BUT FORECASTER
CONFIDENCE IN THE LOWER CIGS AND BR IS WANING. VFR CONDITIONS
WILL PREVAIL ACROSS WESTERN AND NORTH CENTRAL NEBRASKA THROUGH FROM
LATE MORNING AND INTO THE AFTERNOON. SCATTERED SHOWERS AND
THUNDERSTORMS WILL DEVELOP LATER TODAY WITH THE GREATEST COVERAGE
ACROSS NORTHERN NEBRASKA. CHANCES DECREASE WITH SOUTHWARD
PROGRESSION...SO NO MENTION OF -TSRA IN THE KLBF TAF FOR NOW.
MOSTLY CLEAR SKIES ARE EXPECTED ONCE THE ACTIVITY MOVES OUT OF THE
AREA LATE THIS EVENING.


* * * * * Kansas * * * * *

KGLD 011120Z 0112/0212 32005KT P6SM SKC
     FM011400 36008KT P6SM FEW100
     FM012100 14007KT P6SM SKC
     FM020700 20006KT P6SM SKC
METAR KGLD 011153Z AUTO 32007KT 10SM CLR 10/09 A3001 RMK AO2 SLP133
       T01000094 10150 20100 51011
METAR KGLD 011053Z AUTO 00000KT 10SM CLR 11/10 A3000 RMK AO2 SLP130
       T01110100
METAR KGLD 010953Z AUTO 33004KT 10SM CLR 11/10 A2999 RMK AO2 SLP127
       T01110100

KGCK 011127Z 0112/0212 35011KT P6SM SCT200
     FM011600 02016G22KT P6SM SCT200
     FM012300 06008KT P6SM SKC
METAR KGCK 011154Z 03008KT 10SM CLR 16/13 A2993 RMK AO2 SLP103 T01560128
       10189 20156 53019
METAR KGCK 011054Z AUTO 36012KT 10SM CLR 16/14 A2990 RMK AO2 SLP089
       T01610144
METAR KGCK 010954Z AUTO 36013KT 10SM CLR 16/15 A2988 RMK AO2 SLP078
       T01610150

METAR KLBL 011155Z AUTO 35013KT 10SM CLR 17/13 A2990 RMK AO1 10220 20170
       52017
METAR KLBL 011135Z AUTO 34011KT 10SM CLR 17/13 A2990 RMK AO1
METAR KLBL 011115Z AUTO 33011KT 10SM CLR 18/13 A2990 RMK AO1

METAR KEHA 011148Z AUTO 32006KT 16/12 RMK AO1 PK WND 12 000
       T01560117
METAR KEHA 011128Z AUTO 32005KT 16/12 RMK AO1 PK WND 11 000
       T01560117
METAR KEHA 011108Z AUTO 33008KT 16/11 RMK AO1 PK WND 11 000
       T01560106

Goodland (KGLD) 09/01/14 11:49 UTC
Radar VAD winds      Height      Dir/Spd(kt)
                  11000 FT MSL...300/017
                  10000 FT MSL...318/017
                   9900 FT MSL...325/018
                   9000 FT MSL...330/021
                   8200 FT MSL...340/023
                   8000 FT MSL...342/023
                   7000 FT MSL...355/020
                   6500 FT MSL...004/020
                   6000 FT MSL...016/020
                   5000 FT MSL...020/020
                   4700 FT MSL...004/025
                   4600 FT MSL...020/018
                   4000 FT MSL...000/023
                   4000 FT MSL...001/021

Dodge City (KDDC) 09/01/14 11:57 UTC
Radar VAD winds      Height      Dir/Spd(kt)
                  13000 FT MSL...293/032
                  12000 FT MSL...300/028
                  11600 FT MSL...291/021
                  11000 FT MSL...294/018
                  10000 FT MSL...360/016
                   9700 FT MSL...026/014
                   9000 FT MSL...043/017
                   8200 FT MSL...063/019
                   8000 FT MSL...057/020
                   7000 FT MSL...053/021
                   7000 FT MSL...048/021
                   6000 FT MSL...053/019
                   5900 FT MSL...050/019
                   5100 FT MSL...079/021
                   5000 FT MSL...081/021
                   4300 FT MSL...079/024
                   4000 FT MSL...075/023
                   3700 FT MSL...062/022
                   3200 FT MSL...027/019
                   3000 FT MSL...011/019
                   3000 FT MSL...011/019

Goodland Aviation Discussion
Issued at 1148 UTC Monday, September  1, 2014

.AVIATION...(FOR THE 12Z TAFS THROUGH 12Z TUESDAY MORNING)
ISSUED AT 538 AM MDT MON SEP 1 2014
VFR CONDITIONS EXPECTED FOR BOTH TAF SITES...WITH MAINLY SKC BUT
FEW-SCT100 POSSIBLE LATE MORNING/EARLY AFTERNOON. WINDS NNW
5-10KTS BECM SE 5-10KTS FOR GLD...VRB05 FOR MCK. SW 5-10KTS BOTH
SITES BY 06Z TUESDAY.

Dodge City Aviation Discussion
Issued at 1157 UTC Monday, September  1, 2014

.AVIATION...(FOR THE 12Z TAFS THROUGH 12Z TUESDAY MORNING)
ISSUED AT 655 AM CDT MON SEP 1 2014
THE COLD FRONT WHICH PUSHED THROUGH LATE LAST NIGHT WILL LEAD TO
LIGHTER WINDS TODAY WITH NORTH WINDS 12 TO 15 KNOTS ON AVERAGE. A
FEW LATE NIGHT THUNDERSTORMS MAY REACH AS FAR NORTH AS GARDEN CITY
TO DODGE CITY IN THE 06-12Z TIME FRAME EARLY TUESDAY MORNING, BUT
WE WILL HOLD OFF ON INCLUSION IN THE TAF FOR NOW.


* * * * * Texas/Oklahoma * * * * *

KGUY 011120Z 0112/0212 36008KT P6SM FEW200
     FM020100 08010KT P6SM SCT080 BKN200
     FM020800 04008KT P6SM BKN080=
METAR KGUY 011153Z AUTO 34014KT 10SM CLR 17/14 A2991 RMK AO2 SLP073
       T01720139 10211 20172 51014
METAR KGUY 011053Z AUTO 32012KT 10SM CLR 17/14 A2990 RMK AO2 SLP069
       T01720139
METAR KGUY 010953Z AUTO 32008KT 10SM CLR 18/15 A2988 RMK AO2 SLP062
       T01780150

KDHT 011120Z 0112/0212 01010KT P6SM FEW200
     FM012200 10010KT P6SM FEW080
     FM020400 04010KT P6SM SCT120
METAR KDHT 011153Z AUTO 34009KT 10SM CLR 16/12 A2997 RMK AO2 SLP082
       T01610122 10228 20161 51010
METAR KDHT 011053Z AUTO 35007KT 10SM CLR 17/13 A2996 RMK AO2 SLP076
       T01720128
METAR KDHT 010953Z AUTO 01010KT 10SM CLR 18/12 A2995 RMK AO2 SLP073
       T01780122

Amarillo (KAMA) 09/01/14 11:46 UTC
Radar VAD winds      Height      Dir/Spd(kt)
                  17000 FT MSL...226/006
                  16000 FT MSL...251/023
                  15000 FT MSL...277/016
                  14000 FT MSL...294/021
                  13000 FT MSL...293/021
                  12000 FT MSL...293/021
                  11600 FT MSL...293/021
                  11000 FT MSL...291/022
                  10000 FT MSL...296/025
                   9900 FT MSL...293/025
                   9000 FT MSL...286/026
                   8200 FT MSL...286/027
                   8000 FT MSL...281/028
                   7000 FT MSL...269/031
                   6500 FT MSL...260/035
                   6000 FT MSL...250/043
                   5000 FT MSL...247/036
                   4700 FT MSL...241/028
                   4600 FT MSL...259/029
                   4000 FT MSL...295/020
                   4000 FT MSL...304/021

Amarillo Aviation Discussion
Issued at 1113 UTC Monday, September  1, 2014

.AVIATION...
12Z TAF CYCLE
A COLD FRONT WILL SLOWLY PUSH SOUTH OUT OF THE SOUTHERN TEXAS
PANHANDLE THIS MORNING AND THEN BECOME STATIONARY BY THIS AFTERNOON.
THIS FRONT WILL LIFT NORTH AND EAST THIS EVENING BEFORE A REINFORCING
SURGE PUSHES THE FRONT BACK SOUTH AGAIN BY 12Z TUESDAY. AS A
RESULT...WINDS WILL BE FLUCTUATING FROM THE NORTH AND EAST 5 TO
AROUND 10 KNOTS OR SO...AND THEN SOUTH AT THE AMARILLO TAF
SITE...BEFORE BECOMING NORTH AND NORTHEAST AGAIN BY 06Z TO 12Z
TUESDAY AT ALL THREE TAF SITES. VFR CONDITIONS ARE EXPECTED THROUGH
12Z TUESDAY.
SCHNEIDER


* * * * * New Mexico * * * * *

KFMN 011124Z 0112/0212 08005KT P6SM SKC
     FM012000 28010G16KT P6SM SKC
     FM020200 32006KT P6SM SKC
     FM020800 07006KT P6SM SKC
METAR KFMN 011153Z 31004KT 10SM CLR 14/02 A3006 RMK AO2 SLP114 T01440022
       10222 20139 53006
METAR KFMN 011053Z AUTO 30004KT 10SM CLR 14/03 A3005 RMK AO2 SLP113
       T01390028
METAR KFMN 010953Z AUTO 26004KT 10SM CLR 15/03 A3004 RMK AO2 SLP109
       T01500033


KLVS 011124Z 0112/0212 27009KT P6SM SKC
     FM011700 25010G20KT P6SM FEW090
      TEMPO 0121/0201 24015G25KT
     FM020200 28008KT P6SM SKC
METAR KLVS 011153Z AUTO 01003KT 10SM CLR 18/01 A3015 RMK AO2 SLP081
       T01780011 10200 20139 53006
METAR KLVS 011053Z AUTO 07004KT 10SM CLR 15/01 A3014 RMK AO2 SLP083
       T01500011
METAR KLVS 010953Z AUTO 25009KT 10SM CLR 15/01 A3012 RMK AO2 SLP077
       T01500011

METAR KRTN 011153Z AUTO 04010KT 10SM CLR 11/03 A3009 RMK AO2 SLP097
       T01110033 10178 20100 53012
METAR KRTN 011053Z AUTO 07006KT 10SM CLR 12/02 A3006 RMK AO2 SLP085
       T01170017
METAR KRTN 010953Z AUTO 04007KT 10SM CLR 12/02 A3005 RMK AO2 SLP081
       T01220017

METAR KCAO 011155Z AUTO 35011KT 10SM CLR 16/09 A3004 RMK AO2 SLP096
       T01560089 10172 20144 53014
METAR KCAO 011055Z AUTO 36010KT 10SM CLR 16/10 A3002 RMK AO2 SLP085
       T01610100
METAR KCAO 010955Z AUTO 36009KT 10SM CLR 16/10 A3000 RMK AO2 SLP073
       T01560100

Albuquerque (KABX) 09/01/14 11:50 UTC
Radar VAD winds      Height      Dir/Spd(kt)
                  15000 FT MSL...097/007
                  14000 FT MSL...343/034
                  13000 FT MSL...345/035
                  12200 FT MSL...012/032
                  12000 FT MSL...013/033
                  11000 FT MSL...359/032
                  10400 FT MSL...355/033
                  10000 FT MSL...344/033
                   9000 FT MSL...322/036
                   8700 FT MSL...322/034
                   8000 FT MSL...311/034
                   7000 FT MSL...304/031
                   7000 FT MSL...306/030
                   6900 FT MSL...353/018
                   6300 FT MSL...004/017

Albuquerque Aviation Discussion
Issued at 1134 UTC Monday, September  1, 2014

.AVIATION...
12Z TAF CYCLE
VFR CONDITIONS WILL PREVAIL AT ALL TAF SITES DURING THE NEXT 24
HOURS. WITH UPPER HIGH CENTERED NEAR KELP TODAY...VERY DRY WESTERLY
FLOW ALOFT WILL CONTINUE OVER CENTRAL AND NORTHERN NM. BREEZY
CONDITIONS EXPECTED FOR NRN MOUNTAINS AND CENTRAL AND NE HIGHLANDS
WITH WEAK SFC LEE TROUGH REMAINING IN PLACE OVER NERN PLAINS.
33

* * * * * Winds and Temperatures Aloft Forecasts * * * * *

DATA BASED ON 010000Z    
VALID 010600Z   FOR USE 0500-0900Z. TEMPS NEG ABV 24000
FT  3000    6000   9000    12000   18000   24000  30000  34000  39000
SLC      9900    3111+11 2827+03 2841-08 2968-18 297335 307646 297356
BCE                      2722+09 2930-03 3028-17 293834 294344 284856
LND              2805+07 2913+00 2830-14 2843-25 287240 288747 289150
RKS              3020    3022+02 2736-12 2852-22 299436 299847 288754
GJT              3311+13 2826+07 2642-09 2955-18 296135 296545 296055
FMN              2923+18 2825+10 2732-05 2938-17 284334 294844 284756
ABQ              2920+19 2811+11 2826-05 2925-16 293233 293243 273455
MBW              2607    2822+01 2740-14 2850-25 288239 289346 288250
DEN              3116+13 2920+05 2748-10 2755-21 297736 287946 287354
PUB              2812+16 2825+09 2733-09 2851-18 286135 296246 285655
ALS                      2728+10 2837-06 2941-17 284835 295445 285056
TCC      2525    2622+20 2623+12 2926-05 2929-17 283434 293744 274354
BFF      3417    3025+08 2836+02 2743-13 2743-26 286840 287846 287748
GLD      0217    3318+13 2821+07 2651-11 2760-22 298336 298245 276451
GCK      0405+21 2712+19 2820+11 2533-08 2845-20 297034 286845 275552
GAG      2257+24 2543+19 2740+11 2827-05 2840-17 274634 284544 274754
AMA      2243    2632+20 2732+11 2927-05 2836-16 283933 283644 273754
---------------------------------------------------------------------

DATA BASED ON 010000Z    
VALID 011200Z   FOR USE 0900-1800Z. TEMPS NEG ABV 24000
FT  3000    6000   9000    12000   18000   24000  30000  34000  39000
SLC      9900    2609+09 2920+01 2850-09 2972-19 307735 308245 318056
BCE                      2823+08 2832-04 2835-18 303834 303745 303656
LND              2711+07 2918+01 2832-15 2845-28 287240 298647 298351
RKS              2715    2824+00 2844-13 2872-22 289437 790146 299954
GJT              2806+12 2824+06 2844-06 2859-19 286635 296745 296655
FMN              2823+16 2924+09 2834-05 2832-18 284533 284444 284756
ABQ              3216+17 2806+09 2827-04 2825-16 283533 283344 283556
MBW              2721    2721+01 2736-13 2754-25 279538 279947 288352
DEN              2409+10 2419+04 2849-09 2864-19 277536 277346 277855
PUB              1814+12 2620+07 2844-07 2754-18 275635 285645 276456
ALS                      2718+09 2839-06 2839-18 285034 285444 276256
TCC      2912    2813+19 2617+11 2724-05 2723-17 283134 283344 274056
BFF      3207    3012+07 2820+00 2742-13 2753-25 279338 770047 278349
GLD      0207    2909+12 2420+06 2746-10 2757-18 276935 276847 277454
GCK      0422+19 3110+16 2720+09 2731-08 2744-18 275135 275146 266056
GAG      2538+23 2721+19 2724+10 2620-06 2629-17 274135 284645 275656
AMA      2543    2722+19 2717+11 2720-05 2828-17 273034 283544 274456
---------------------------------------------------------------------

DATA BASED ON 010000Z    
VALID 020000Z   FOR USE 1800-0500Z. TEMPS NEG ABV 24000
FT  3000    6000   9000    12000   18000   24000  30000  34000  39000
SLC      9900    2906+11 3014+05 2932-07 3044-18 295835 286246 295355
BCE                      2808+11 2921-05 2924-17 273235 273545 284255
LND              9900+10 2916+02 3147-10 3162-20 306236 296246 296554
RKS              2822    2924+03 3041-09 3055-20 296636 297645 287155
GJT              2609+16 2811+08 2930-06 2944-18 295334 285445 274956
FMN              2913+19 2919+10 2925-05 3027-17 292934 272645 273056
ABQ              2606+20 2911+11 3016-04 2916-17 291934 282345 282755
MBW              2824    2825+02 2948-12 3067-20 297936 298245 298554
DEN              9900+14 2722+07 2846-08 3063-19 297534 297644 286755
PUB              2408+17 2624+10 2839-08 2951-19 295433 285144 275056
ALS                      2612+11 3033-05 3037-17 294234 283345 283456
TCC      2312    2312+20 2313+11 2922-05 2823-18 292534 292344 292256
BFF      3014    2918+10 2825+01 2850-16 2963-24 299335 299944 790054
GLD      9900    2916+12 2625+06 2856-09 2868-19 287334 297843 287455
GCK      0910+19 2916+16 2727+09 2840-07 2750-19 285535 296144 295856
GAG      1808+22 2321+18 2527+10 2734-06 2736-18 283733 293444 293056
AMA      1905    2010+20 2113+11 2727-06 2928-18 282833 292544 292356
---------------------------------------------------------------------

This product is updated automatically at approximately 10, 30 and 50
minutes after each hour, 24 hours per day, 7 days per week.  It may
become unavailable at times due to system outages without prior notice.
Users are advised to check the time at the top of the product to ensure
that it is current.  Furthermore, content and format of the product are
subject to change without prior notice.

Comments and suggestions are welcome and should be directed to one of
the addresses or phone numbers shown at the bottom of this page.  In
order to expedite a response to comments or suggestions, be sure to
mention your interest in the hot-air balloon forecast.

USA.gov is the U.S. government's official web portal to all federal, state and local government web resources and services.